Terminal Aerodrome Forecast
Issued by NWS Sioux Falls, SD

Home | Current Version | Previous Version | Graphics & Text | Print | Product List | Glossary On
Versions: 1 2 3 4 5 6 7 8 9 10 11 12
000
FTUS43 KFSD 210520
TAFSUX
TAF
KSUX 210520Z 2106/2206 31009KT P6SM SCT200
     FM211100 33012G20KT P6SM SCT070
     FM211300 34020G32KT P6SM SKC
     FM211600 33018G27KT P6SM SKC
     FM212300 33011KT P6SM SKC=

USA.gov is the U.S. government's official web portal to all federal, state and local government web resources and services.